createdAt,value
2023-06-17T00:00:58.271Z,101572.63
2023-06-17T00:03:25.473Z,101564.69
2023-06-17T00:05:52.942Z,101570.94
2023-06-17T00:08:20.937Z,101570.09
2023-06-17T00:10:48.241Z,101564.78
2023-06-17T00:13:20.336Z,101561.22
2023-06-17T00:15:51.955Z,101565.66
2023-06-17T00:18:20.829Z,101565.69
2023-06-17T00:20:49.619Z,101562.16
2023-06-17T00:23:16.904Z,101555.94
2023-06-17T00:25:44.075Z,101565.69
2023-06-17T00:28:11.276Z,101556.81
2023-06-17T00:30:38.711Z,101555.03
2023-06-17T00:33:06.455Z,101546.22
2023-06-17T00:35:34.789Z,101550.66
2023-06-17T00:38:02.229Z,101551.56
2023-06-17T00:40:29.287Z,101559.53
2023-06-17T00:42:56.296Z,101550.69
2023-06-17T00:45:23.319Z,101555.13
2023-06-17T00:47:51.621Z,101548.91
2023-06-17T00:50:19.636Z,101546.25
2023-06-17T00:52:51.622Z,101549.81
2023-06-17T00:55:19.193Z,101552.47
2023-06-17T00:57:48.775Z,101548.94
2023-06-17T01:00:16.702Z,101554.25
2023-06-17T01:02:46.332Z,101548.03
2023-06-17T01:05:17.876Z,101547.16
2023-06-17T01:08:16.126Z,101549.81
2023-06-17T01:10:52.773Z,101537.41
2023-06-17T01:13:20.390Z,101546.25
2023-06-17T01:15:48.484Z,101546.25
2023-06-17T01:18:19.113Z,101548.03
2023-06-17T01:20:52.793Z,101545.38
2023-06-17T01:23:22.447Z,101540.06
2023-06-17T01:25:50.801Z,101540.06
2023-06-17T01:28:20.470Z,101540.94
2023-06-17T01:30:49.213Z,101542.72
2023-06-17T01:33:17.183Z,101545.38
2023-06-17T01:36:01.600Z,101540.91
2023-06-17T01:39:05.141Z,101540.94
2023-06-17T01:41:39.860Z,101540.91
2023-06-17T01:44:09.804Z,101545.31
2023-06-17T01:46:38.469Z,101541.78
2023-06-17T01:49:05.572Z,101539.13
2023-06-17T01:51:32.619Z,101538.25
2023-06-17T01:53:59.650Z,101534.69
2023-06-17T01:56:26.764Z,101536.44
2023-06-17T01:58:53.823Z,101540.88
2023-06-17T02:01:21.738Z,101545.28
2023-06-17T02:03:48.868Z,101543.50
2023-06-17T02:06:17.412Z,101543.50
2023-06-17T02:08:45.322Z,101538.19
2023-06-17T02:11:12.735Z,101538.19
2023-06-17T02:13:39.765Z,101537.25
2023-06-17T02:16:06.863Z,101538.09
2023-06-17T02:18:34.835Z,101531.84
2023-06-17T02:21:02.854Z,101524.78
2023-06-17T02:23:30.654Z,101531.84
2023-06-17T02:25:58.476Z,101531.84
2023-06-17T02:28:25.781Z,101526.53
2023-06-17T02:30:52.889Z,101524.78
2023-06-17T02:33:20.023Z,101528.34
2023-06-17T02:35:47.349Z,101516.81
2023-06-17T02:38:15.285Z,101517.69
2023-06-17T02:40:42.355Z,101512.34
2023-06-17T02:43:09.424Z,101511.50
2023-06-17T02:45:36.395Z,101512.31
2023-06-17T02:48:03.735Z,101507.91
2023-06-17T02:50:30.830Z,101507.03
2023-06-17T02:52:57.928Z,101511.38
2023-06-17T02:55:26.725Z,101503.28
2023-06-17T02:57:54.376Z,101507.63
2023-06-17T03:00:22.066Z,101502.28
2023-06-17T03:02:50.194Z,101498.78
2023-06-17T03:05:18.042Z,101505.00
2023-06-17T03:07:46.947Z,101508.50
2023-06-17T03:10:14.035Z,101509.38
2023-06-17T03:12:41.021Z,101509.38
2023-06-17T03:15:09.700Z,101507.59
2023-06-17T03:17:38.416Z,101509.34
2023-06-17T03:20:09.623Z,101500.44
2023-06-17T03:22:36.701Z,101502.97
2023-06-17T03:25:04.245Z,101501.09
2023-06-17T03:27:31.281Z,101497.53
2023-06-17T03:29:58.303Z,101501.16
2023-06-17T03:32:25.309Z,101498.59
2023-06-17T03:34:54.346Z,101503.03
2023-06-17T03:37:22.007Z,101490.69
2023-06-17T03:39:49.044Z,101499.53
2023-06-17T03:42:17.516Z,101499.56
2023-06-17T03:44:44.546Z,101500.44
2023-06-17T03:47:11.904Z,101497.81
2023-06-17T03:49:38.945Z,101497.88
2023-06-17T03:52:06.762Z,101497.91
2023-06-17T03:54:33.899Z,101497.88
2023-06-17T03:57:01.097Z,101491.69
2023-06-17T03:59:28.202Z,101496.97
2023-06-17T04:01:55.328Z,101496.09
2023-06-17T04:04:23.152Z,101504.91
2023-06-17T04:06:50.673Z,101498.72
2023-06-17T04:09:18.083Z,101499.59
2023-06-17T04:11:45.236Z,101501.44
2023-06-17T04:14:12.286Z,101494.38
2023-06-17T04:16:39.381Z,101497.16
2023-06-17T04:19:06.933Z,101504.22
2023-06-17T04:21:34.230Z,101507.72
2023-06-17T04:24:01.556Z,101511.34
2023-06-17T04:26:29.349Z,101514.88
2023-06-17T04:28:56.729Z,101505.19
2023-06-17T04:31:24.127Z,101518.50
2023-06-17T04:33:51.097Z,101516.75
2023-06-17T04:36:18.721Z,101518.56
2023-06-17T04:38:46.041Z,101512.38
2023-06-17T04:41:13.357Z,101520.41
2023-06-17T04:43:41.256Z,101512.44
2023-06-17T04:46:09.549Z,101506.25
2023-06-17T04:48:38.515Z,101510.69
2023-06-17T04:51:07.177Z,101509.81
2023-06-17T04:53:34.335Z,101512.47
2023-06-17T04:56:01.705Z,101508.06
2023-06-17T04:58:28.700Z,101508.13
2023-06-17T05:00:55.750Z,101504.59
2023-06-17T05:03:22.809Z,101504.63
2023-06-17T05:05:49.910Z,101504.63
2023-06-17T05:08:16.889Z,101507.28
2023-06-17T05:10:44.037Z,101507.31
2023-06-17T05:13:11.046Z,101502.88
2023-06-17T05:15:38.070Z,101509.06
2023-06-17T05:18:05.263Z,101517.03
2023-06-17T05:20:32.331Z,101520.53
2023-06-17T05:22:59.355Z,101531.19
2023-06-17T05:25:26.422Z,101516.13
2023-06-17T05:27:53.431Z,101523.25
2023-06-17T05:30:20.676Z,101510.78
2023-06-17T05:32:47.950Z,101509.81
2023-06-17T05:35:15.021Z,101508.91
2023-06-17T05:37:42.034Z,101503.53
2023-06-17T05:40:09.785Z,101505.16
2023-06-17T05:42:36.774Z,101498.97
2023-06-17T05:45:03.928Z,101492.75
2023-06-17T05:47:31.164Z,101502.47
2023-06-17T05:49:58.165Z,101495.28
2023-06-17T05:52:25.456Z,101495.88
2023-06-17T05:54:52.453Z,101495.97
2023-06-17T05:57:19.471Z,101495.78
2023-06-17T05:59:46.484Z,101493.81
2023-06-17T06:02:13.521Z,101495.47
2023-06-17T06:04:40.588Z,101499.94
2023-06-17T06:07:08.676Z,101498.97
2023-06-17T06:09:35.816Z,101509.38
2023-06-17T06:12:02.892Z,101500.34
2023-06-17T06:14:29.948Z,101504.66
2023-06-17T06:16:56.935Z,101499.09
2023-06-17T06:19:24.345Z,101497.25
2023-06-17T06:21:51.376Z,101497.09
2023-06-17T06:24:18.418Z,101503.28
2023-06-17T06:26:45.544Z,101499.53
2023-06-17T06:29:14.490Z,101501.78
2023-06-17T06:31:44.555Z,101500.75
2023-06-17T06:34:11.821Z,101495.38
2023-06-17T06:36:38.841Z,101500.47
2023-06-17T06:39:05.886Z,101498.34
2023-06-17T06:41:33.009Z,101491.22
2023-06-17T06:44:00.048Z,101496.47
2023-06-17T06:46:27.416Z,101493.63
2023-06-17T06:48:54.687Z,101490.00
2023-06-17T06:51:21.944Z,101495.91
2023-06-17T06:53:50.050Z,101478.63
2023-06-17T06:56:17.081Z,101489.88
2023-06-17T06:58:44.100Z,101481.72
2023-06-17T07:01:11.193Z,101482.53
2023-06-17T07:03:38.571Z,101481.50
2023-06-17T07:06:05.778Z,101471.72
2023-06-17T07:08:32.824Z,101478.09
2023-06-17T07:10:59.830Z,101472.50
2023-06-17T07:13:27.585Z,101480.13
2023-06-17T07:15:54.641Z,101471.91
2023-06-17T07:18:21.654Z,101470.47
2023-06-17T07:23:15.533Z,101476.00
2023-06-17T07:25:42.564Z,101481.09
2023-06-17T07:28:09.820Z,101482.44
2023-06-17T07:30:36.913Z,101481.97
2023-06-17T07:33:04.938Z,101485.13
2023-06-17T07:35:32.088Z,101481.44
2023-06-17T07:37:59.323Z,101486.66
2023-06-17T07:40:26.819Z,101482.06
2023-06-17T07:42:53.860Z,101489.88
2023-06-17T07:45:21.051Z,101480.88
2023-06-17T07:47:49.340Z,101478.38
2023-06-17T07:50:16.471Z,101475.97
2023-06-17T07:52:43.671Z,101486.28
2023-06-17T07:55:11.915Z,101480.91
2023-06-17T07:57:39.110Z,101482.44
2023-06-17T08:00:11.368Z,101492.47
2023-06-17T08:02:38.466Z,101477.38
2023-06-17T08:05:06.113Z,101481.28
2023-06-17T08:07:33.157Z,101489.69
2023-06-17T08:10:00.194Z,101478.97
2023-06-17T08:12:27.280Z,101488.97
2023-06-17T08:14:54.347Z,101484.56
2023-06-17T08:17:22.027Z,101483.91
2023-06-17T08:19:49.092Z,101479.06
2023-06-17T08:22:16.286Z,101479.06
2023-06-17T08:24:43.415Z,101472.09
2023-06-17T08:27:13.305Z,101472.47
2023-06-17T08:29:41.217Z,101462.09
2023-06-17T08:32:08.563Z,101468.47
2023-06-17T08:34:36.318Z,101465.91
2023-06-17T08:37:05.924Z,101459.66
2023-06-17T08:39:33.312Z,101456.03
2023-06-17T08:42:00.827Z,101456.97
2023-06-17T08:44:32.920Z,101451.44
2023-06-17T08:47:06.469Z,101452.84
2023-06-17T08:49:34.963Z,101453.19
2023-06-17T08:52:03.631Z,101451.53
2023-06-17T08:54:41.203Z,101450.19
2023-06-17T08:57:14.063Z,101449.56
2023-06-17T08:59:44.491Z,101448.63
2023-06-17T09:02:12.007Z,101449.81
2023-06-17T09:04:40.611Z,101446.22
2023-06-17T09:07:10.823Z,101447.03
2023-06-17T09:09:38.597Z,101441.41
2023-06-17T09:12:07.354Z,101440.38
2023-06-17T09:14:35.402Z,101437.03
2023-06-17T09:17:04.169Z,101439.69
2023-06-17T09:19:33.684Z,101436.44
2023-06-17T09:22:18.658Z,101441.06
2023-06-17T09:24:47.475Z,101443.97
2023-06-17T09:27:23.865Z,101437.53
2023-06-17T09:30:14.522Z,101442.28
2023-06-17T09:32:44.234Z,101435.22
2023-06-17T09:35:18.253Z,101440.56
2023-06-17T09:38:03.107Z,101445.66
2023-06-17T09:40:34.892Z,101434.13
2023-06-17T09:43:25.069Z,101440.16
2023-06-17T09:46:04.251Z,101428.63
2023-06-17T09:48:36.823Z,101428.94
2023-06-17T09:51:10.862Z,101435.41
2023-06-17T09:53:39.104Z,101435.16
2023-06-17T09:56:12.211Z,101428.97
2023-06-17T09:58:44.023Z,101431.03
2023-06-17T10:01:13.232Z,101430.56
2023-06-17T10:03:43.727Z,101422.34
2023-06-17T10:06:13.135Z,101427.50
2023-06-17T10:08:50.246Z,101418.41
2023-06-17T10:11:21.402Z,101419.91
2023-06-17T10:13:57.355Z,101429.13
2023-06-17T10:16:29.338Z,101415.69
2023-06-17T10:19:00.536Z,101412.00
2023-06-17T10:21:30.566Z,101406.78
2023-06-17T10:24:01.218Z,101414.47
2023-06-17T10:26:32.067Z,101405.97
2023-06-17T10:29:03.199Z,101413.47
2023-06-17T10:31:33.161Z,101406.78
2023-06-17T10:34:04.816Z,101402.59
2023-06-17T10:36:37.350Z,101401.38
2023-06-17T10:39:12.302Z,101403.91
2023-06-17T10:41:39.401Z,101396.81
2023-06-17T10:44:22.092Z,101401.28
2023-06-17T10:46:52.373Z,101400.84
2023-06-17T10:49:20.735Z,101393.38
2023-06-17T10:51:57.931Z,101381.19
2023-06-17T10:54:34.220Z,101384.09
2023-06-17T10:57:07.722Z,101381.59
2023-06-17T10:59:34.900Z,101384.66
2023-06-17T11:02:10.171Z,101380.16
2023-06-17T11:04:44.186Z,101379.78
2023-06-17T11:07:14.577Z,101376.25
2023-06-17T11:09:41.604Z,101375.63
2023-06-17T11:12:09.211Z,101377.88
2023-06-17T11:14:38.697Z,101371.38
2023-06-17T11:17:06.044Z,101367.97
2023-06-17T11:19:33.206Z,101367.38
2023-06-17T11:22:04.517Z,101355.34
2023-06-17T11:24:32.835Z,101354.38
2023-06-17T11:27:01.607Z,101354.06
2023-06-17T11:29:30.489Z,101348.75
2023-06-17T11:32:02.264Z,101355.13
2023-06-17T11:34:33.366Z,101348.13
2023-06-17T11:37:03.357Z,101340.13
2023-06-17T11:39:34.197Z,101334.19
2023-06-17T11:42:03.585Z,101334.88
2023-06-17T11:44:32.895Z,101324.00
2023-06-17T11:47:10.767Z,101327.16
2023-06-17T11:49:46.080Z,101337.69
2023-06-17T11:52:15.164Z,101330.47
2023-06-17T11:54:53.212Z,101322.25
2023-06-17T11:57:23.729Z,101322.34
2023-06-17T11:59:52.258Z,101315.06
2023-06-17T12:02:20.299Z,101321.41
2023-06-17T12:04:48.472Z,101311.97
2023-06-17T12:07:15.805Z,101318.31
2023-06-17T12:09:54.465Z,101310.78
2023-06-17T12:12:33.759Z,101314.38
2023-06-17T12:15:15.663Z,101306.94
2023-06-17T12:17:54.419Z,101299.63
2023-06-17T12:20:22.783Z,101297.22
2023-06-17T12:22:52.302Z,101295.34
2023-06-17T12:25:20.626Z,101294.88
2023-06-17T12:27:48.131Z,101292.59
2023-06-17T12:30:15.719Z,101299.00
2023-06-17T12:32:44.324Z,101290.16
2023-06-17T12:35:13.279Z,101293.03
2023-06-17T12:37:45.168Z,101296.13
2023-06-17T12:40:12.891Z,101295.97
2023-06-17T12:42:40.761Z,101282.16
2023-06-17T12:45:09.034Z,101285.34
2023-06-17T12:47:38.091Z,101279.25
2023-06-17T12:50:09.196Z,101275.16
2023-06-17T12:52:36.219Z,101281.91
2023-06-17T12:55:06.142Z,101281.56
2023-06-17T12:57:34.675Z,101284.19
2023-06-17T13:00:02.788Z,101286.22
2023-06-17T13:02:32.546Z,101281.91
2023-06-17T13:04:59.724Z,101269.09
2023-06-17T13:07:28.191Z,101280.88
2023-06-17T13:09:57.067Z,101278.28
2023-06-17T13:12:24.208Z,101273.22
2023-06-17T13:14:51.218Z,101275.84
2023-06-17T13:17:18.543Z,101269.25
2023-06-17T13:19:45.695Z,101267.59
2023-06-17T13:22:13.473Z,101271.22
2023-06-17T13:24:40.732Z,101267.06
2023-06-17T13:27:08.901Z,101268.91
2023-06-17T13:29:36.258Z,101261.69
2023-06-17T13:32:04.395Z,101256.03
2023-06-17T13:34:31.448Z,101262.25
2023-06-17T13:36:58.646Z,101268.72
2023-06-17T13:39:25.764Z,101263.66
2023-06-17T13:41:53.240Z,101253.75
2023-06-17T13:44:20.261Z,101256.50
2023-06-17T13:46:48.680Z,101249.63
2023-06-17T13:49:16.202Z,101250.63
2023-06-17T13:51:43.176Z,101244.28
2023-06-17T13:54:10.454Z,101243.97
2023-06-17T13:56:37.505Z,101247.25
2023-06-17T13:59:04.572Z,101250.38
2023-06-17T14:01:31.663Z,101243.75
2023-06-17T14:03:59.413Z,101246.44
2023-06-17T14:06:27.017Z,101239.03
2023-06-17T14:08:54.096Z,101240.56
2023-06-17T14:11:23.459Z,101246.16
2023-06-17T14:13:50.771Z,101247.03
2023-06-17T14:16:18.392Z,101250.06
2023-06-17T14:18:45.452Z,101238.84
2023-06-17T14:21:34.199Z,101237.34
2023-06-17T14:24:06.884Z,101241.31
2023-06-17T14:26:41.014Z,101237.00
2023-06-17T14:29:09.913Z,101237.97
2023-06-17T14:31:37.940Z,101239.06
2023-06-17T14:34:05.051Z,101235.75
2023-06-17T14:36:32.352Z,101230.78
2023-06-17T14:39:01.632Z,101229.28
2023-06-17T14:41:30.146Z,101229.59
2023-06-17T14:43:59.184Z,101226.84
2023-06-17T14:46:26.253Z,101230.78
2023-06-17T14:48:53.405Z,101221.72
2023-06-17T14:51:20.589Z,101223.66
2023-06-17T14:53:47.612Z,101222.47
2023-06-17T14:56:29.686Z,101236.34
2023-06-17T14:59:03.343Z,101223.19
2023-06-17T15:01:35.394Z,101214.50
2023-06-17T15:04:03.521Z,101224.38
2023-06-17T15:06:31.690Z,101212.00
2023-06-17T15:09:27.181Z,101210.69
2023-06-17T15:11:57.461Z,101208.31
2023-06-17T15:14:28.793Z,101208.31
2023-06-17T15:16:56.232Z,101212.09
2023-06-17T15:19:23.571Z,101203.50
2023-06-17T15:21:51.688Z,101207.22
2023-06-17T15:24:18.988Z,101209.25
2023-06-17T15:26:47.436Z,101207.84
2023-06-17T15:29:15.645Z,101206.09
2023-06-17T15:31:43.201Z,101213.53
2023-06-17T15:34:11.443Z,101203.63
2023-06-17T15:36:38.565Z,101207.34
2023-06-17T15:39:28.944Z,101196.31
2023-06-17T15:41:56.221Z,101192.59
2023-06-17T15:44:23.562Z,101197.22
2023-06-17T15:46:51.694Z,101200.06
2023-06-17T15:49:18.915Z,101194.81
2023-06-17T15:51:45.987Z,101195.16
2023-06-17T15:54:13.152Z,101187.19
2023-06-17T15:56:40.758Z,101187.97
2023-06-17T15:59:08.272Z,101185.47
2023-06-17T16:01:35.486Z,101190.69
2023-06-17T16:04:39.145Z,101191.56
2023-06-17T16:07:11.940Z,101182.28
2023-06-17T16:09:49.156Z,101178.03
2023-06-17T16:12:17.734Z,101178.44
2023-06-17T16:14:47.090Z,101178.47
2023-06-17T16:17:14.440Z,101172.56
2023-06-17T16:19:41.688Z,101177.59
2023-06-17T16:22:11.527Z,101179.63
2023-06-17T16:24:41.151Z,101169.50
2023-06-17T16:27:09.559Z,101179.75
2023-06-17T16:29:36.707Z,101182.97
2023-06-17T16:32:04.623Z,101179.06
2023-06-17T16:34:31.779Z,101174.91
2023-06-17T16:36:58.919Z,101172.09
2023-06-17T16:39:26.446Z,101168.50
2023-06-17T16:41:53.996Z,101172.03
2023-06-17T16:44:21.241Z,101159.44
2023-06-17T16:46:48.703Z,101162.84
2023-06-17T16:49:15.873Z,101160.81
2023-06-17T16:51:42.975Z,101161.38
2023-06-17T16:54:10.156Z,101155.72
2023-06-17T16:56:37.567Z,101157.84
2023-06-17T16:59:05.021Z,101161.13
2023-06-17T17:01:32.277Z,101158.44
2023-06-17T17:04:01.767Z,101160.91
2023-06-17T17:06:34.205Z,101152.91
2023-06-17T17:09:01.274Z,101149.16
2023-06-17T17:11:28.329Z,101155.56
2023-06-17T17:13:55.717Z,101155.47
2023-06-17T17:16:23.490Z,101156.91
2023-06-17T17:18:50.660Z,101157.22
2023-06-17T17:21:18.047Z,101154.81
2023-06-17T17:23:46.316Z,101161.78
2023-06-17T17:26:13.924Z,101153.34
2023-06-17T17:28:42.543Z,101157.13
2023-06-17T17:31:10.245Z,101156.94
2023-06-17T17:33:37.733Z,101151.28
2023-06-17T17:36:05.147Z,101141.81
2023-06-17T17:38:32.483Z,101149.34
2023-06-17T17:40:59.501Z,101156.03
2023-06-17T17:43:28.093Z,101161.47
2023-06-17T17:45:56.870Z,101163.31
2023-06-17T17:48:23.998Z,101156.03
2023-06-17T17:50:51.152Z,101163.13
2023-06-17T17:53:18.226Z,101156.81
2023-06-17T17:55:45.457Z,101156.31
2023-06-17T17:58:12.525Z,101156.03
2023-06-17T18:00:39.647Z,101158.84
2023-06-17T18:03:06.817Z,101152.75
2023-06-17T18:05:33.870Z,101161.44
2023-06-17T18:08:01.083Z,101158.69
2023-06-17T18:10:28.266Z,101162.72
2023-06-17T18:12:55.327Z,101156.09
2023-06-17T18:15:22.470Z,101154.69
2023-06-17T18:17:49.531Z,101154.97
2023-06-17T18:20:16.606Z,101149.78
2023-06-17T18:22:43.609Z,101157.31
2023-06-17T18:25:11.202Z,101158.97
2023-06-17T18:27:39.960Z,101154.41
2023-06-17T18:30:08.633Z,101160.66
2023-06-17T18:32:35.865Z,101162.75
2023-06-17T18:35:03.799Z,101160.03
2023-06-17T18:37:30.937Z,101163.41
2023-06-17T18:39:58.220Z,101168.34
2023-06-17T18:42:25.249Z,101170.63
2023-06-17T18:44:52.491Z,101169.91
2023-06-17T18:47:19.560Z,101163.00
2023-06-17T18:49:48.142Z,101157.56
2023-06-17T18:52:16.830Z,101165.41
2023-06-17T18:54:43.910Z,101162.53
2023-06-17T18:57:11.417Z,101164.19
2023-06-17T18:59:38.399Z,101166.31
2023-06-17T19:02:05.686Z,101163.38
2023-06-17T19:04:32.641Z,101173.56
2023-06-17T19:06:59.784Z,101169.41
2023-06-17T19:09:27.488Z,101167.28
2023-06-17T19:12:00.515Z,101168.78
2023-06-17T19:14:27.939Z,101158.28
2023-06-17T19:16:55.347Z,101161.94
2023-06-17T19:19:22.420Z,101170.38
2023-06-17T19:21:49.664Z,101166.22
2023-06-17T19:24:18.485Z,101166.78
2023-06-17T19:26:45.705Z,101171.47
2023-06-17T19:29:12.772Z,101157.00
2023-06-17T19:31:39.786Z,101168.00
2023-06-17T19:34:06.840Z,101169.41
2023-06-17T19:36:33.831Z,101163.69
2023-06-17T19:39:00.817Z,101170.75
2023-06-17T19:41:29.017Z,101172.09
2023-06-17T19:43:57.694Z,101174.50
2023-06-17T19:46:24.846Z,101172.69
2023-06-17T19:48:51.998Z,101168.53
2023-06-17T19:51:19.046Z,101168.84
2023-06-17T19:53:46.228Z,101178.19
2023-06-17T19:56:13.247Z,101182.13
2023-06-17T19:58:40.557Z,101181.47
2023-06-17T20:01:07.659Z,101187.25
2023-06-17T20:03:34.969Z,101185.63
2023-06-17T20:06:02.875Z,101190.63
2023-06-17T20:08:30.766Z,101181.00
2023-06-17T20:11:02.221Z,101191.97
2023-06-17T20:13:29.277Z,101190.13
2023-06-17T20:15:56.315Z,101192.31
2023-06-17T20:18:23.484Z,101188.13
2023-06-17T20:20:50.837Z,101191.09
2023-06-17T20:23:17.859Z,101191.59
2023-06-17T20:25:44.982Z,101192.75
2023-06-17T20:28:11.990Z,101188.31
2023-06-17T20:30:39.003Z,101196.75
2023-06-17T20:33:06.046Z,101195.16
2023-06-17T20:35:33.159Z,101195.44
2023-06-17T20:38:00.182Z,101196.31
2023-06-17T20:40:28.022Z,101192.06
2023-06-17T20:42:55.093Z,101190.75
2023-06-17T20:45:22.149Z,101195.19
2023-06-17T20:47:49.232Z,101198.31
2023-06-17T20:50:16.636Z,101193.38
2023-06-17T20:52:43.615Z,101201.00
2023-06-17T20:55:10.880Z,101201.78
2023-06-17T20:57:38.041Z,101193.47
2023-06-17T21:00:05.992Z,101194.53
2023-06-17T21:02:33.077Z,101190.34
2023-06-17T21:05:00.276Z,101185.34
2023-06-17T21:07:27.365Z,101197.28
2023-06-17T21:09:54.860Z,101190.78
2023-06-17T21:12:22.157Z,101191.13
2023-06-17T21:14:49.261Z,101190.63
2023-06-17T21:17:16.949Z,101189.75
2023-06-17T21:19:43.997Z,101205.22
2023-06-17T21:22:11.048Z,101197.38
2023-06-17T21:24:38.650Z,101191.22
2023-06-17T21:27:10.420Z,101198.53
2023-06-17T21:29:41.367Z,101211.34
2023-06-17T21:32:11.759Z,101207.19
2023-06-17T21:34:38.853Z,101209.09
2023-06-17T21:37:06.208Z,101206.75
2023-06-17T21:39:33.273Z,101211.28
2023-06-17T21:42:00.614Z,101205.19
2023-06-17T21:44:27.658Z,101208.34
2023-06-17T21:46:54.743Z,101203.84
2023-06-17T21:49:21.857Z,101199.72
2023-06-17T21:51:50.034Z,101203.50
2023-06-17T21:54:17.257Z,101199.88
2023-06-17T21:56:44.284Z,101199.06
2023-06-17T21:59:11.325Z,101192.81
2023-06-17T22:01:38.424Z,101192.34
2023-06-17T22:04:05.744Z,101188.84
2023-06-17T22:06:32.923Z,101181.88
2023-06-17T22:09:00.013Z,101181.47
2023-06-17T22:11:27.021Z,101177.94
2023-06-17T22:13:54.090Z,101180.94
2023-06-17T22:16:21.234Z,101187.41
2023-06-17T22:18:48.262Z,101183.00
2023-06-17T22:21:15.381Z,101190.03
2023-06-17T22:23:42.455Z,101184.22
2023-06-17T22:26:09.418Z,101183.41
2023-06-17T22:28:36.556Z,101188.03
2023-06-17T22:31:03.567Z,101185.50
2023-06-17T22:33:30.727Z,101174.00
2023-06-17T22:35:57.778Z,101170.47
2023-06-17T22:38:24.860Z,101171.06
2023-06-17T22:40:51.907Z,101177.50
2023-06-17T22:43:20.640Z,101174.91
2023-06-17T22:45:48.115Z,101175.16
2023-06-17T22:48:15.122Z,101179.56
2023-06-17T22:50:42.498Z,101175.31
2023-06-17T22:53:09.734Z,101184.38
2023-06-17T22:55:37.677Z,101182.88
2023-06-17T22:58:04.904Z,101181.44
2023-06-17T23:00:31.938Z,101183.19
2023-06-17T23:02:59.017Z,101185.13
2023-06-17T23:05:26.068Z,101177.22
2023-06-17T23:07:53.144Z,101178.25
2023-06-17T23:10:20.755Z,101180.84
2023-06-17T23:12:48.061Z,101187.31
2023-06-17T23:15:15.088Z,101179.53
2023-06-17T23:17:42.140Z,101177.88
2023-06-17T23:20:09.606Z,101172.50
2023-06-17T23:22:36.994Z,101175.28
2023-06-17T23:25:08.110Z,101169.97
2023-06-17T23:27:35.660Z,101173.66
2023-06-17T23:30:03.002Z,101171.22
2023-06-17T23:32:30.086Z,101176.56
2023-06-17T23:34:57.463Z,101171.34
2023-06-17T23:37:26.527Z,101170.50
2023-06-17T23:39:53.780Z,101172.13
2023-06-17T23:42:20.896Z,101173.28
2023-06-17T23:44:49.499Z,101174.09
2023-06-17T23:47:18.482Z,101175.44
2023-06-17T23:49:46.384Z,101178.16
2023-06-17T23:52:14.045Z,101173.72
2023-06-17T23:54:41.932Z,101173.16
2023-06-17T23:57:09.034Z,101167.91
2023-06-17T23:59:36.921Z,101164.56
